createdAt,value
2022-11-06T00:01:43.147Z,12.10
2022-11-06T00:04:11.060Z,12.10
2022-11-06T00:06:49.843Z,12.10
2022-11-06T00:09:19.834Z,12.10
2022-11-06T00:11:48.833Z,12.00
2022-11-06T00:14:18.809Z,11.90
2022-11-06T00:16:47.823Z,11.90
2022-11-06T00:19:16.594Z,11.80
2022-11-06T00:21:44.902Z,11.80
2022-11-06T00:24:14.773Z,11.80
2022-11-06T00:26:43.276Z,11.50
2022-11-06T00:29:14.664Z,11.80
2022-11-06T00:31:43.820Z,11.70
2022-11-06T00:34:11.818Z,11.70
2022-11-06T00:36:39.842Z,11.80
2022-11-06T00:39:07.727Z,11.70
2022-11-06T00:41:35.550Z,11.70
2022-11-06T00:44:04.607Z,11.60
2022-11-06T00:46:32.741Z,11.80
2022-11-06T00:49:01.854Z,11.80
2022-11-06T00:51:32.237Z,11.90
2022-11-06T00:54:01.722Z,11.90
2022-11-06T00:56:30.227Z,12.00
2022-11-06T00:59:00.880Z,12.10
2022-11-06T01:01:31.567Z,12.10
2022-11-06T01:04:02.692Z,12.10
2022-11-06T01:06:32.782Z,12.10
2022-11-06T01:09:00.684Z,12.10
2022-11-06T01:11:46.515Z,12.10
2022-11-06T01:14:19.055Z,12.00
2022-11-06T01:16:48.187Z,12.00
2022-11-06T01:19:18.727Z,12.10
2022-11-06T01:21:49.291Z,12.00
2022-11-06T01:24:18.852Z,12.10
2022-11-06T01:27:12.144Z,12.10
2022-11-06T01:29:34.916Z,12.20
2022-11-06T01:32:02.947Z,12.10
2022-11-06T01:34:32.075Z,12.10
2022-11-06T01:36:59.822Z,12.10
2022-11-06T01:39:27.541Z,12.10
2022-11-06T01:41:55.489Z,12.00
2022-11-06T01:45:18.254Z,12.10
2022-11-06T01:47:46.345Z,12.20
2022-11-06T01:50:17.517Z,12.10
2022-11-06T01:52:47.057Z,12.10
2022-11-06T01:55:17.667Z,12.20
2022-11-06T01:57:46.005Z,12.10
2022-11-06T02:00:14.839Z,12.10
2022-11-06T02:02:42.883Z,12.30
2022-11-06T02:05:10.765Z,12.10
2022-11-06T02:07:41.161Z,12.10
2022-11-06T02:10:09.857Z,12.20
2022-11-06T02:12:49.616Z,12.30
2022-11-06T02:15:26.970Z,12.30
2022-11-06T02:18:08.735Z,12.20
2022-11-06T02:20:42.538Z,12.00
2022-11-06T02:23:38.625Z,12.20
2022-11-06T02:26:24.201Z,12.10
2022-11-06T02:28:55.800Z,12.10
2022-11-06T02:31:27.769Z,12.00
2022-11-06T02:34:00.471Z,12.10
2022-11-06T02:36:32.073Z,12.00
2022-11-06T02:39:04.402Z,11.90
2022-11-06T02:41:35.077Z,12.00
2022-11-06T02:44:08.866Z,11.90
2022-11-06T02:46:40.904Z,12.00
2022-11-06T02:49:13.111Z,12.00
2022-11-06T02:51:45.731Z,11.90
2022-11-06T02:54:15.053Z,11.90
2022-11-06T02:56:46.941Z,11.90
2022-11-06T02:59:20.201Z,11.80
2022-11-06T03:01:51.859Z,11.70
2022-11-06T03:04:23.014Z,11.70
2022-11-06T03:06:55.069Z,11.80
2022-11-06T03:09:28.512Z,11.80
2022-11-06T03:12:01.917Z,11.70
2022-11-06T03:14:36.028Z,11.70
2022-11-06T03:17:12.896Z,11.60
2022-11-06T03:19:48.078Z,11.60
2022-11-06T03:22:20.052Z,11.50
2022-11-06T03:24:53.426Z,11.40
2022-11-06T03:27:23.900Z,11.40
2022-11-06T03:29:59.447Z,11.30
2022-11-06T03:32:31.481Z,11.40
2022-11-06T03:35:06.553Z,11.50
2022-11-06T03:37:38.145Z,11.40
2022-11-06T03:40:11.671Z,11.30
2022-11-06T03:42:42.867Z,11.50
2022-11-06T03:45:15.761Z,11.40
2022-11-06T03:47:46.405Z,11.40
2022-11-06T03:50:21.149Z,11.10
2022-11-06T03:52:54.311Z,11.40
2022-11-06T03:55:25.815Z,11.30
2022-11-06T03:57:57.060Z,11.30
2022-11-06T04:00:26.261Z,11.20
2022-11-06T04:03:04.831Z,11.10
2022-11-06T04:05:38.184Z,11.20
2022-11-06T04:08:26.050Z,11.20
2022-11-06T04:11:13.942Z,11.10
2022-11-06T04:13:56.291Z,11.10
2022-11-06T04:16:26.450Z,11.10
2022-11-06T04:18:54.172Z,11.10
2022-11-06T04:21:31.841Z,11.20
2022-11-06T04:24:27.637Z,11.10
2022-11-06T04:27:06.340Z,10.90
2022-11-06T04:29:48.849Z,11.20
2022-11-06T04:32:25.054Z,11.30
2022-11-06T04:35:02.139Z,11.10
2022-11-06T04:37:37.252Z,11.00
2022-11-06T04:40:10.341Z,11.10
2022-11-06T04:42:43.341Z,11.10
2022-11-06T04:45:15.801Z,11.20
2022-11-06T04:47:46.328Z,11.10
2022-11-06T04:50:16.541Z,11.10
2022-11-06T04:52:46.177Z,11.10
2022-11-06T04:55:13.893Z,10.90
2022-11-06T04:57:41.609Z,10.90
2022-11-06T05:00:14.458Z,11.00
2022-11-06T05:02:43.873Z,11.00
2022-11-06T05:05:11.593Z,11.00
2022-11-06T05:07:39.327Z,11.10
2022-11-06T05:10:07.633Z,11.00
2022-11-06T05:12:35.356Z,10.90
2022-11-06T05:15:03.097Z,10.60
2022-11-06T05:17:36.179Z,11.00
2022-11-06T05:20:07.049Z,11.00
2022-11-06T05:22:52.388Z,10.90
2022-11-06T05:25:20.116Z,11.10
2022-11-06T05:27:47.834Z,11.20
2022-11-06T05:30:15.741Z,11.20
2022-11-06T05:32:43.557Z,11.20
2022-11-06T05:35:12.963Z,11.20
2022-11-06T05:37:40.660Z,11.30
2022-11-06T05:40:09.486Z,11.20
2022-11-06T05:42:38.756Z,11.30
2022-11-06T05:45:07.933Z,10.90
2022-11-06T05:47:35.807Z,11.00
2022-11-06T05:50:03.520Z,11.20
2022-11-06T05:52:32.614Z,11.20
2022-11-06T05:55:00.409Z,11.20
2022-11-06T05:57:28.208Z,11.10
2022-11-06T05:59:55.919Z,11.30
2022-11-06T06:02:23.882Z,11.20
2022-11-06T06:04:51.701Z,11.40
2022-11-06T06:07:19.405Z,11.40
2022-11-06T06:09:48.705Z,11.40
2022-11-06T06:12:16.540Z,11.40
2022-11-06T06:14:49.304Z,11.40
2022-11-06T06:17:18.090Z,11.30
2022-11-06T06:19:45.808Z,11.30
2022-11-06T06:22:13.528Z,11.30
2022-11-06T06:24:41.381Z,11.30
2022-11-06T06:27:10.562Z,11.10
2022-11-06T06:29:38.372Z,11.20
2022-11-06T06:32:06.557Z,11.20
2022-11-06T06:34:34.304Z,11.10
2022-11-06T06:37:02.024Z,11.20
2022-11-06T06:39:29.758Z,11.20
2022-11-06T06:41:57.455Z,11.20
2022-11-06T06:44:26.554Z,11.30
2022-11-06T06:46:54.273Z,11.40
2022-11-06T06:49:22.016Z,11.40
2022-11-06T06:51:50.093Z,11.40
2022-11-06T06:54:17.919Z,11.30
2022-11-06T06:56:45.668Z,11.40
2022-11-06T06:59:13.378Z,11.30
2022-11-06T07:01:42.523Z,11.40
2022-11-06T07:04:11.223Z,11.50
2022-11-06T07:06:38.943Z,11.50
2022-11-06T07:09:07.256Z,11.60
2022-11-06T07:11:34.962Z,11.60
2022-11-06T07:14:02.692Z,11.60
2022-11-06T07:16:32.370Z,11.70
2022-11-06T07:19:01.545Z,11.70
2022-11-06T07:21:29.494Z,11.70
2022-11-06T07:23:57.221Z,11.70
2022-11-06T07:26:24.969Z,11.60
2022-11-06T07:28:52.683Z,11.60
2022-11-06T07:31:20.374Z,11.50
2022-11-06T07:33:48.140Z,11.60
2022-11-06T07:36:17.302Z,11.70
2022-11-06T07:38:45.323Z,11.60
2022-11-06T07:41:15.473Z,11.80
2022-11-06T07:43:43.608Z,11.80
2022-11-06T07:46:13.385Z,11.90
2022-11-06T07:48:41.181Z,11.70
2022-11-06T07:51:11.043Z,11.70
2022-11-06T07:53:41.220Z,11.80
2022-11-06T07:56:09.790Z,11.90
2022-11-06T07:58:37.824Z,11.80
2022-11-06T08:01:05.874Z,11.90
2022-11-06T08:03:34.363Z,11.90
2022-11-06T08:06:05.111Z,12.00
2022-11-06T08:08:32.910Z,12.00
2022-11-06T08:11:04.450Z,12.10
2022-11-06T08:13:33.899Z,12.20
2022-11-06T08:16:04.838Z,12.10
2022-11-06T08:18:32.600Z,12.00
2022-11-06T08:21:00.770Z,12.10
2022-11-06T08:23:28.551Z,11.80
2022-11-06T08:25:57.599Z,12.10
2022-11-06T08:28:27.651Z,12.00
2022-11-06T08:30:55.462Z,12.00
2022-11-06T08:33:24.720Z,12.30
2022-11-06T08:35:52.471Z,12.30
2022-11-06T08:38:20.202Z,12.30
2022-11-06T08:40:53.200Z,12.40
2022-11-06T08:43:24.171Z,12.20
2022-11-06T08:45:53.631Z,12.20
2022-11-06T08:48:21.398Z,12.30
2022-11-06T08:50:49.620Z,12.30
2022-11-06T08:53:18.141Z,12.30
2022-11-06T08:55:46.237Z,12.40
2022-11-06T08:58:14.638Z,12.40
2022-11-06T09:00:42.689Z,12.20
2022-11-06T09:03:13.777Z,12.40
2022-11-06T09:05:42.472Z,12.60
2022-11-06T09:08:10.447Z,12.60
2022-11-06T09:10:38.954Z,12.60
2022-11-06T09:13:07.171Z,12.60
2022-11-06T09:15:35.337Z,12.70
2022-11-06T09:18:03.034Z,12.80
2022-11-06T09:20:32.119Z,13.00
2022-11-06T09:23:02.920Z,13.00
2022-11-06T09:25:30.975Z,13.20
2022-11-06T09:27:59.849Z,13.40
2022-11-06T09:30:29.797Z,13.60
2022-11-06T09:32:59.569Z,13.50
2022-11-06T09:35:28.883Z,13.60
2022-11-06T09:38:01.930Z,13.70
2022-11-06T09:40:34.717Z,13.80
2022-11-06T09:43:12.903Z,13.70
2022-11-06T09:45:41.581Z,13.80
2022-11-06T09:48:19.168Z,13.70
2022-11-06T09:50:52.084Z,13.80
2022-11-06T09:53:27.643Z,13.50
2022-11-06T09:55:58.356Z,13.80
2022-11-06T09:58:29.800Z,13.90
2022-11-06T10:01:01.315Z,13.60
2022-11-06T10:03:36.823Z,13.50
2022-11-06T10:06:05.053Z,13.70
2022-11-06T10:08:34.811Z,13.90
2022-11-06T10:11:06.602Z,13.80
2022-11-06T10:13:54.275Z,14.00
2022-11-06T10:16:31.679Z,14.10
2022-11-06T10:19:10.827Z,14.30
2022-11-06T10:21:48.452Z,14.40
2022-11-06T10:24:33.184Z,14.60
2022-11-06T10:27:05.710Z,14.60
2022-11-06T10:29:45.556Z,14.80
2022-11-06T10:32:32.438Z,15.00
2022-11-06T10:35:03.715Z,14.80
2022-11-06T10:37:35.925Z,15.00
2022-11-06T10:40:13.056Z,15.00
2022-11-06T10:42:42.257Z,15.10
2022-11-06T10:45:15.480Z,15.20
2022-11-06T10:47:46.453Z,15.30
2022-11-06T10:50:15.843Z,15.50
2022-11-06T10:52:52.505Z,15.10
2022-11-06T10:55:39.814Z,15.40
2022-11-06T10:58:09.583Z,15.50
2022-11-06T11:00:38.629Z,15.60
2022-11-06T11:03:08.808Z,15.60
2022-11-06T11:05:40.450Z,15.50
2022-11-06T11:08:28.532Z,15.70
2022-11-06T11:11:05.163Z,15.80
2022-11-06T11:13:34.041Z,15.80
2022-11-06T11:16:03.766Z,15.90
2022-11-06T11:18:32.227Z,16.20
2022-11-06T11:21:08.969Z,15.90
2022-11-06T11:23:36.779Z,16.10
2022-11-06T11:26:22.215Z,15.90
2022-11-06T11:28:56.447Z,15.70
2022-11-06T11:31:30.117Z,15.90
2022-11-06T11:34:00.278Z,16.00
2022-11-06T11:36:28.083Z,16.10
2022-11-06T11:38:56.022Z,16.10
2022-11-06T11:41:26.450Z,16.20
2022-11-06T11:43:58.661Z,16.30
2022-11-06T11:46:27.191Z,16.10
2022-11-06T11:48:57.470Z,16.10
2022-11-06T11:51:32.863Z,16.50
2022-11-06T11:54:06.112Z,16.30
2022-11-06T11:57:03.689Z,16.50
2022-11-06T11:59:35.870Z,16.50
2022-11-06T12:02:12.223Z,16.70
2022-11-06T12:04:43.646Z,16.80
2022-11-06T12:07:23.379Z,16.40
2022-11-06T12:09:51.617Z,16.60
2022-11-06T12:12:24.958Z,16.50
2022-11-06T12:15:18.550Z,16.50
2022-11-06T12:17:51.995Z,16.50
2022-11-06T12:20:25.790Z,16.30
2022-11-06T12:22:56.103Z,16.40
2022-11-06T12:25:30.111Z,16.40
2022-11-06T12:28:01.572Z,16.40
2022-11-06T12:30:32.833Z,16.50
2022-11-06T12:33:07.095Z,16.30
2022-11-06T12:35:41.173Z,16.40
2022-11-06T12:38:18.860Z,16.40
2022-11-06T12:40:50.064Z,16.10
2022-11-06T12:43:26.592Z,16.40
2022-11-06T12:46:34.510Z,16.70
2022-11-06T12:49:18.948Z,16.70
2022-11-06T12:52:00.819Z,16.80
2022-11-06T12:54:46.293Z,16.20
2022-11-06T12:57:22.950Z,16.30
2022-11-06T13:00:03.785Z,16.50
2022-11-06T13:02:46.176Z,16.50
2022-11-06T13:05:19.174Z,16.30
2022-11-06T13:08:01.205Z,16.40
2022-11-06T13:10:52.537Z,16.40
2022-11-06T13:13:37.769Z,16.50
2022-11-06T13:16:17.655Z,16.50
2022-11-06T13:18:53.238Z,16.70
2022-11-06T13:21:29.834Z,16.90
2022-11-06T13:24:01.827Z,17.00
2022-11-06T13:26:36.725Z,16.30
2022-11-06T13:29:07.245Z,16.50
2022-11-06T13:31:41.212Z,16.50
2022-11-06T13:34:16.131Z,16.70
2022-11-06T13:36:44.840Z,16.90
2022-11-06T13:39:18.902Z,16.90
2022-11-06T13:41:46.635Z,16.90
2022-11-06T13:44:16.221Z,16.70
2022-11-06T13:46:56.204Z,16.70
2022-11-06T13:49:30.606Z,16.70
2022-11-06T13:52:00.570Z,16.60
2022-11-06T13:54:41.606Z,16.60
2022-11-06T13:57:33.508Z,16.60
2022-11-06T14:00:21.000Z,16.50
2022-11-06T14:03:15.532Z,16.30
2022-11-06T14:05:54.546Z,16.00
2022-11-06T14:08:25.665Z,16.10
2022-11-06T14:10:57.586Z,16.30
2022-11-06T14:13:30.648Z,16.20
2022-11-06T14:16:05.006Z,16.30
2022-11-06T14:18:34.853Z,16.10
2022-11-06T14:21:43.788Z,16.10
2022-11-06T14:24:39.087Z,15.90
2022-11-06T14:27:10.472Z,15.90
2022-11-06T14:29:59.527Z,16.00
2022-11-06T14:32:42.445Z,16.20
2022-11-06T14:35:49.376Z,16.40
2022-11-06T14:38:20.433Z,16.30
2022-11-06T14:40:48.213Z,16.20
2022-11-06T14:43:21.261Z,16.30
2022-11-06T14:45:53.598Z,16.30
2022-11-06T14:48:30.880Z,16.10
2022-11-06T14:51:02.041Z,16.10
2022-11-06T14:53:34.140Z,16.00
2022-11-06T14:56:04.169Z,16.20
2022-11-06T14:58:34.023Z,16.10
2022-11-06T15:01:03.948Z,15.90
2022-11-06T15:03:37.607Z,15.80
2022-11-06T15:06:35.943Z,15.70
2022-11-06T15:09:06.242Z,15.40
2022-11-06T15:11:55.899Z,15.50
2022-11-06T15:15:00.431Z,15.70
2022-11-06T15:17:33.486Z,15.50
2022-11-06T15:20:08.258Z,15.40
2022-11-06T15:22:43.930Z,14.70
2022-11-06T15:25:22.949Z,15.20
2022-11-06T15:27:59.119Z,15.00
2022-11-06T15:30:27.473Z,14.90
2022-11-06T15:32:56.334Z,15.20
2022-11-06T15:35:27.401Z,15.10
2022-11-06T15:38:04.234Z,15.10
2022-11-06T15:40:33.719Z,15.10
2022-11-06T15:43:06.455Z,14.90
2022-11-06T15:45:34.339Z,14.80
2022-11-06T15:48:03.465Z,14.80
2022-11-06T15:50:32.280Z,14.90
2022-11-06T15:53:20.625Z,15.00
2022-11-06T15:55:53.782Z,14.70
2022-11-06T15:58:31.147Z,14.70
2022-11-06T16:01:00.529Z,14.50
2022-11-06T16:03:30.375Z,14.40
2022-11-06T16:06:00.690Z,14.60
2022-11-06T16:08:32.246Z,14.50
2022-11-06T16:11:01.110Z,14.40
2022-11-06T16:13:29.538Z,14.60
2022-11-06T16:15:58.888Z,14.40
2022-11-06T16:18:29.568Z,14.40
2022-11-06T16:21:01.070Z,14.50
2022-11-06T16:23:38.803Z,14.50
2022-11-06T16:26:10.484Z,14.40
2022-11-06T16:28:44.804Z,14.30
2022-11-06T16:31:18.671Z,14.10
2022-11-06T16:33:55.831Z,14.30
2022-11-06T16:36:24.070Z,14.30
2022-11-06T16:38:53.907Z,14.00
2022-11-06T16:41:40.361Z,14.20
2022-11-06T16:44:29.287Z,13.70
2022-11-06T16:47:17.115Z,14.00
2022-11-06T16:49:52.813Z,14.00
2022-11-06T16:52:27.796Z,13.80
2022-11-06T16:55:00.179Z,13.70
2022-11-06T16:57:32.044Z,13.80
2022-11-06T17:00:03.090Z,14.00
2022-11-06T17:02:33.884Z,14.20
2022-11-06T17:05:10.353Z,14.30
2022-11-06T17:07:38.291Z,14.20
2022-11-06T17:10:36.282Z,14.20
2022-11-06T17:13:16.685Z,14.20
2022-11-06T17:15:46.652Z,14.40
2022-11-06T17:18:20.101Z,14.00
2022-11-06T17:20:51.868Z,14.00
2022-11-06T17:23:20.005Z,14.20
2022-11-06T17:25:50.055Z,13.60
2022-11-06T17:28:18.840Z,13.90
2022-11-06T17:30:47.543Z,14.10
2022-11-06T17:33:16.849Z,13.90
2022-11-06T17:35:44.844Z,14.00
2022-11-06T17:38:15.174Z,13.90
2022-11-06T17:40:43.124Z,14.10
2022-11-06T17:43:13.280Z,14.00
2022-11-06T17:45:44.371Z,14.20
2022-11-06T17:48:12.195Z,14.20
2022-11-06T17:50:53.839Z,14.20
2022-11-06T17:53:21.697Z,13.60
2022-11-06T17:55:49.507Z,13.90
2022-11-06T17:58:18.643Z,13.90
2022-11-06T18:00:46.539Z,13.80
2022-11-06T18:03:19.049Z,13.90
2022-11-06T18:05:47.385Z,14.00
2022-11-06T18:08:16.214Z,13.90
2022-11-06T18:10:44.228Z,13.50
2022-11-06T18:13:11.994Z,13.80
2022-11-06T18:15:41.325Z,13.80
2022-11-06T18:18:09.191Z,14.00
2022-11-06T18:20:36.934Z,13.70
2022-11-06T18:23:04.756Z,13.90
2022-11-06T18:25:32.492Z,14.10
2022-11-06T18:28:03.687Z,14.30
2022-11-06T18:30:31.774Z,14.50
2022-11-06T18:33:00.947Z,14.80
2022-11-06T18:35:28.666Z,14.90
2022-11-06T18:37:56.409Z,14.90
2022-11-06T18:40:24.107Z,14.70
2022-11-06T18:42:54.334Z,14.60
2022-11-06T18:45:22.101Z,14.70
2022-11-06T18:47:49.934Z,14.90
2022-11-06T18:50:19.222Z,14.90
2022-11-06T18:52:58.823Z,15.10
2022-11-06T18:55:26.713Z,15.20
2022-11-06T18:57:54.917Z,15.20
2022-11-06T19:00:22.950Z,15.10
2022-11-06T19:02:50.933Z,15.10
2022-11-06T19:05:20.227Z,15.10
2022-11-06T19:07:52.796Z,15.10
2022-11-06T19:10:22.882Z,14.70
2022-11-06T19:12:50.600Z,14.60
2022-11-06T19:15:18.433Z,14.30
2022-11-06T19:17:46.121Z,14.50
2022-11-06T19:20:15.185Z,14.40
2022-11-06T19:22:44.522Z,14.40
2022-11-06T19:25:12.267Z,14.70
2022-11-06T19:27:39.969Z,14.60
2022-11-06T19:30:09.030Z,14.40
2022-11-06T19:32:36.901Z,14.70
2022-11-06T19:35:05.058Z,14.80
2022-11-06T19:37:33.124Z,14.50
2022-11-06T19:40:06.106Z,14.50
2022-11-06T19:42:34.270Z,14.50
2022-11-06T19:45:02.052Z,14.40
2022-11-06T19:47:32.205Z,14.20
2022-11-06T19:50:00.085Z,14.20
2022-11-06T19:52:43.463Z,14.20
2022-11-06T19:55:25.866Z,14.10
2022-11-06T19:57:55.495Z,13.90
2022-11-06T20:00:23.226Z,14.00
2022-11-06T20:02:51.225Z,13.90
2022-11-06T20:05:19.207Z,13.80
2022-11-06T20:07:47.017Z,13.60
2022-11-06T20:10:16.563Z,13.40
2022-11-06T20:12:44.289Z,13.60
2022-11-06T20:15:12.326Z,13.50
2022-11-06T20:17:40.143Z,13.40
2022-11-06T20:20:09.255Z,13.30
2022-11-06T20:22:37.039Z,13.30
2022-11-06T20:25:05.021Z,13.40
2022-11-06T20:27:34.192Z,13.20
2022-11-06T20:30:02.853Z,13.20
2022-11-06T20:32:30.699Z,13.00
2022-11-06T20:34:58.450Z,13.40
2022-11-06T20:37:26.728Z,13.30
2022-11-06T20:39:54.426Z,13.30
2022-11-06T20:42:22.235Z,13.30
2022-11-06T20:44:51.379Z,13.40
2022-11-06T20:47:19.164Z,13.50
2022-11-06T20:49:46.911Z,13.60
2022-11-06T20:52:15.455Z,13.40
2022-11-06T20:54:47.111Z,13.40
2022-11-06T20:57:15.831Z,13.20
2022-11-06T20:59:43.835Z,13.10
2022-11-06T21:02:13.146Z,12.90
2022-11-06T21:04:41.010Z,13.00
2022-11-06T21:07:08.821Z,13.00
2022-11-06T21:09:37.395Z,13.10
2022-11-06T21:12:05.334Z,13.00
2022-11-06T21:14:33.711Z,12.90
2022-11-06T21:17:02.343Z,12.90
2022-11-06T21:19:33.036Z,12.90
2022-11-06T21:22:01.016Z,12.80
2022-11-06T21:24:28.755Z,12.90
2022-11-06T21:26:57.273Z,13.10
2022-11-06T21:29:25.566Z,13.10
2022-11-06T21:31:54.475Z,13.20
2022-11-06T21:34:22.268Z,13.10
2022-11-06T21:36:51.407Z,13.00
2022-11-06T21:39:20.669Z,13.00
2022-11-06T21:41:48.595Z,12.80
2022-11-06T21:44:18.110Z,12.70
2022-11-06T21:46:46.392Z,12.60
2022-11-06T21:49:14.494Z,12.60
2022-11-06T21:51:42.834Z,12.70
2022-11-06T21:54:30.522Z,12.50
2022-11-06T21:56:58.252Z,12.70
2022-11-06T21:59:27.850Z,12.80
2022-11-06T22:01:55.986Z,12.70
2022-11-06T22:04:24.369Z,12.60
2022-11-06T22:06:52.984Z,12.70
2022-11-06T22:09:25.299Z,12.70
2022-11-06T22:11:53.847Z,12.70
2022-11-06T22:14:21.580Z,12.60
2022-11-06T22:16:49.860Z,12.60
2022-11-06T22:19:18.591Z,12.50
2022-11-06T22:21:46.704Z,12.50
2022-11-06T22:24:15.819Z,12.60
2022-11-06T22:26:44.988Z,12.60
2022-11-06T22:29:14.348Z,12.40
2022-11-06T22:31:42.452Z,12.60
2022-11-06T22:34:12.812Z,12.80
2022-11-06T22:36:41.193Z,12.80
2022-11-06T22:39:10.345Z,12.80
2022-11-06T22:41:39.119Z,12.80
2022-11-06T22:44:08.953Z,12.80
2022-11-06T22:46:37.008Z,12.70
2022-11-06T22:49:06.108Z,12.80
2022-11-06T22:51:34.744Z,13.10
2022-11-06T22:54:03.382Z,13.00
2022-11-06T22:56:32.221Z,13.20
2022-11-06T22:59:01.613Z,13.10
2022-11-06T23:01:36.147Z,13.00
2022-11-06T23:04:10.189Z,12.70
2022-11-06T23:06:37.942Z,12.80
2022-11-06T23:09:05.685Z,12.70
2022-11-06T23:11:33.811Z,12.80
2022-11-06T23:14:07.428Z,12.70
2022-11-06T23:16:55.665Z,12.70
2022-11-06T23:19:24.254Z,12.60
2022-11-06T23:21:52.499Z,12.70
2022-11-06T23:24:20.334Z,12.80
2022-11-06T23:26:48.090Z,12.70
2022-11-06T23:29:15.888Z,12.80
2022-11-06T23:31:44.949Z,12.60
2022-11-06T23:34:12.697Z,12.90
2022-11-06T23:36:40.416Z,12.80
2022-11-06T23:39:08.192Z,12.90
2022-11-06T23:41:46.627Z,13.00
2022-11-06T23:44:32.348Z,13.00
2022-11-06T23:47:01.648Z,12.70
2022-11-06T23:49:29.464Z,12.50
2022-11-06T23:51:57.440Z,12.80
2022-11-06T23:54:25.248Z,12.70
2022-11-06T23:56:53.013Z,13.00
2022-11-06T23:59:20.736Z,12.80
